Time;durP1;ratioP1;P1;durP2;ratioP2;P2;SDS_P1;SDS_P2;PMS_P1;PMS_P2;Temp;Humidity;BMP_temperature;BMP_pressure;BME280_temperature;BME280_humidity;BME280_pressure;Samples;Min_cycle;Max_cycle;Signal;HPM_P1;HPM_P2
2022/12/01 00:02:14;;;;;;;115.78;43.72;;;6.00;99.90;;;;;;5034165;28;20136;-40
2022/12/01 00:04:41;;;;;;;124.50;47.38;;;5.90;99.90;;;;;;5017014;28;20089;-40
2022/12/01 00:07:08;;;;;;;113.90;44.80;;;6.00;99.90;;;;;;5034141;28;20068;-40
2022/12/01 00:12:20;;;;;;;118.22;46.60;;;6.00;99.90;;;;;;5030691;28;20129;-40
2022/12/01 00:14:53;;;;;;;120.22;45.50;;;5.90;99.90;;;;;;4998876;28;20075;-39
2022/12/01 00:17:20;;;;;;;128.48;46.33;;;5.90;99.90;;;;;;5031838;28;20057;-40
2022/12/01 00:19:47;;;;;;;119.28;45.25;;;6.00;99.90;;;;;;5033248;28;20132;-40
2022/12/01 00:22:13;;;;;;;118.50;46.00;;;6.00;99.90;;;;;;5035455;28;20085;-39
2022/12/01 00:24:40;;;;;;;119.40;46.05;;;6.00;99.90;;;;;;5017457;28;20099;-40
2022/12/01 00:27:07;;;;;;;113.35;44.88;;;6.00;99.90;;;;;;5034089;28;20049;-40
2022/12/01 00:29:35;;;;;;;116.45;45.80;;;5.90;99.90;;;;;;5032861;28;20143;-40
2022/12/01 00:32:02;;;;;;;114.28;45.92;;;5.90;99.90;;;;;;5032329;28;20125;-40
2022/12/01 00:34:29;;;;;;;120.68;44.35;;;6.00;99.90;;;;;;5034577;28;20084;-40
2022/12/01 00:36:55;;;;;;;119.30;46.30;;;6.00;99.90;;;;;;5015472;28;20057;-40
2022/12/01 00:39:22;;;;;;;120.00;45.55;;;5.90;99.90;;;;;;5035413;28;20050;-39
2022/12/01 00:41:49;;;;;;;119.03;45.75;;;5.90;99.90;;;;;;5029790;28;20128;-40
2022/12/01 00:44:16;;;;;;;126.88;46.10;;;6.00;99.90;;;;;;5011681;28;20539;-40
2022/12/01 00:46:44;;;;;;;111.80;43.50;;;5.90;99.90;;;;;;5024597;28;20155;-40
2022/12/01 00:49:12;;;;;;;107.75;42.65;;;5.90;99.90;;;;;;4999052;28;20077;-40
2022/12/01 00:51:39;;;;;;;112.95;44.55;;;6.00;99.90;;;;;;5022433;28;20056;-38
2022/12/01 00:54:05;;;;;;;122.18;47.78;;;6.00;99.90;;;;;;5031584;28;20049;-37
2022/12/01 00:56:32;;;;;;;119.10;46.30;;;5.90;99.90;;;;;;5015334;28;20050;-39
2022/12/01 00:58:59;;;;;;;107.13;44.83;;;6.00;99.90;;;;;;5033328;28;20054;-39
2022/12/01 01:01:26;;;;;;;110.25;44.88;;;6.00;99.90;;;;;;5031627;28;20147;-39
2022/12/01 01:03:54;;;;;;;116.85;46.00;;;6.00;99.90;;;;;;5028921;28;20088;-39
2022/12/01 01:06:21;;;;;;;110.28;45.67;;;5.90;99.90;;;;;;5034069;28;20124;-39
2022/12/01 01:08:47;;;;;;;116.53;46.10;;;6.00;99.90;;;;;;5004127;28;20053;-39
2022/12/01 01:11:14;;;;;;;108.07;45.33;;;6.00;99.90;;;;;;5025043;28;20437;-39
2022/12/01 01:13:41;;;;;;;111.95;45.47;;;6.00;99.90;;;;;;5013852;28;20112;-39
2022/12/01 01:16:10;;;;;;;101.80;43.67;;;6.00;99.90;;;;;;5031868;28;20076;-40
2022/12/01 01:18:36;;;;;;;111.78;44.60;;;6.00;99.90;;;;;;5007014;28;20085;-40
2022/12/01 01:21:06;;;;;;;116.72;44.97;;;6.00;99.90;;;;;;5027144;28;20535;-39
2022/12/01 01:23:36;;;;;;;112.22;45.00;;;6.00;99.90;;;;;;5032358;28;20095;-39
2022/12/01 01:26:03;;;;;;;111.28;45.17;;;6.00;99.90;;;;;;5032430;28;20137;-40
2022/12/01 01:28:30;;;;;;;115.95;46.25;;;6.00;99.90;;;;;;5033331;28;20481;-39
2022/12/01 01:30:56;;;;;;;103.88;43.50;;;6.00;99.90;;;;;;4997081;28;20082;-40
2022/12/01 01:33:23;;;;;;;105.13;43.53;;;6.00;99.90;;;;;;5025546;28;20096;-40
2022/12/01 01:35:50;;;;;;;110.50;45.90;;;6.00;99.90;;;;;;5032025;28;20061;-39
2022/12/01 01:38:18;;;;;;;106.88;44.78;;;6.00;99.90;;;;;;5031609;28;20045;-39
2022/12/01 01:40:45;;;;;;;111.80;45.40;;;6.00;99.90;;;;;;5031548;28;20163;-39
2022/12/01 01:43:14;;;;;;;113.93;46.08;;;6.00;99.90;;;;;;5016253;28;20077;-40
2022/12/01 01:45:41;;;;;;;105.03;43.45;;;6.00;99.90;;;;;;5032597;28;20041;-39
2022/12/01 01:48:07;;;;;;;108.45;45.33;;;6.00;99.90;;;;;;5018583;28;20481;-40
2022/12/01 01:50:34;;;;;;;109.93;45.65;;;6.00;99.90;;;;;;5032554;28;20056;-40
2022/12/01 01:53:02;;;;;;;113.32;47.10;;;6.00;99.90;;;;;;5024254;28;20207;-39
2022/12/01 01:55:31;;;;;;;114.72;46.97;;;6.00;99.90;;;;;;5001628;28;20137;-39
2022/12/01 01:57:58;;;;;;;102.97;45.72;;;6.00;99.90;;;;;;5014029;28;20133;-39
2022/12/01 02:00:25;;;;;;;107.90;46.15;;;6.00;99.90;;;;;;5025291;28;20115;-40
2022/12/01 02:02:53;;;;;;;116.18;46.63;;;6.00;99.90;;;;;;5033485;28;20577;-39
2022/12/01 02:05:22;;;;;;;108.30;46.40;;;6.00;99.90;;;;;;5023520;28;20049;-38
2022/12/01 02:07:55;;;;;;;99.65;44.15;;;6.00;99.90;;;;;;4997253;28;20050;-40
2022/12/01 02:10:22;;;;;;;112.47;47.25;;;6.00;99.90;;;;;;5000406;28;20553;-39
2022/12/01 02:13:03;;;;;;;107.07;45.30;;;6.00;99.90;;;;;;5033242;28;20096;-40
2022/12/01 02:15:33;;;;;;;103.05;45.72;;;6.00;99.90;;;;;;5030413;28;20115;-40
2022/12/01 02:18:06;;;;;;;108.80;44.13;;;5.90;99.90;;;;;;4996429;28;20085;-40
2022/12/01 02:20:52;;;;;;;104.72;45.20;;;6.00;99.90;;;;;;5027949;28;20652;-40
2022/12/01 02:23:30;;;;;;;102.45;44.90;;;6.00;99.90;;;;;;5031467;28;20085;-36
2022/12/01 02:26:01;;;;;;;107.32;46.65;;;6.00;99.90;;;;;;5013662;28;20050;-39
2022/12/01 02:28:39;;;;;;;102.45;46.28;;;6.00;99.90;;;;;;5013633;28;20050;-40
2022/12/01 02:31:08;;;;;;;109.85;45.35;;;6.00;99.90;;;;;;5023767;28;20052;-40
2022/12/01 02:33:36;;;;;;;103.47;45.88;;;5.90;99.90;;;;;;4996653;28;20066;-40
2022/12/01 02:36:04;;;;;;;102.88;44.88;;;5.90;99.90;;;;;;5013254;28;20081;-40
2022/12/01 02:38:33;;;;;;;102.43;45.30;;;5.90;99.90;;;;;;5013423;28;20153;-40
2022/12/01 02:41:01;;;;;;;108.53;46.28;;;5.90;99.90;;;;;;5021298;28;20509;-40
2022/12/01 02:43:31;;;;;;;109.20;46.75;;;6.00;99.90;;;;;;5015244;28;20497;-39
2022/12/01 02:45:59;;;;;;;109.78;46.60;;;5.90;99.90;;;;;;5012351;28;20052;-40
2022/12/01 02:48:28;;;;;;;103.47;45.65;;;5.90;99.90;;;;;;5031895;28;20126;-39
2022/12/01 02:50:55;;;;;;;107.57;47.53;;;6.00;99.90;;;;;;5032686;28;20108;-40
2022/12/01 02:53:22;;;;;;;104.70;47.38;;;5.90;99.90;;;;;;5032820;28;20132;-40
2022/12/01 02:55:49;;;;;;;99.35;45.13;;;5.90;99.90;;;;;;5029542;28;20057;-40
2022/12/01 02:58:16;;;;;;;112.15;46.15;;;5.90;99.90;;;;;;5032801;28;20092;-40
2022/12/01 03:00:49;;;;;;;109.15;47.60;;;5.90;99.90;;;;;;5032706;28;20129;-40
2022/12/01 03:03:57;;;;;;;101.05;45.22;;;5.90;99.90;;;;;;5032588;28;20136;-40
2022/12/01 03:06:30;;;;;;;112.18;47.70;;;5.90;99.90;;;;;;5028038;28;20128;-39
2022/12/01 03:08:59;;;;;;;110.93;48.50;;;5.90;99.90;;;;;;5000984;28;20045;-39
2022/12/01 03:11:31;;;;;;;101.88;46.05;;;5.90;99.90;;;;;;5006975;28;20136;-39
2022/12/01 03:14:07;;;;;;;110.78;48.00;;;5.90;99.90;;;;;;5010973;28;20115;-39
2022/12/01 03:16:38;;;;;;;106.75;46.97;;;5.90;99.90;;;;;;5027992;28;20065;-40
2022/12/01 03:19:07;;;;;;;107.03;48.22;;;5.90;99.90;;;;;;5035650;28;20563;-39
2022/12/01 03:21:35;;;;;;;97.43;44.53;;;5.90;99.90;;;;;;5019166;28;20557;-40
2022/12/01 03:24:04;;;;;;;114.70;47.92;;;5.90;99.90;;;;;;5033890;28;20136;-40
2022/12/01 03:26:31;;;;;;;113.95;47.78;;;5.90;99.90;;;;;;5037141;28;20095;-40
2022/12/01 03:29:00;;;;;;;105.30;47.35;;;5.90;99.90;;;;;;5038443;28;20077;-40
2022/12/01 03:31:29;;;;;;;109.68;48.67;;;5.90;99.90;;;;;;5018853;28;20497;-39
2022/12/01 03:33:58;;;;;;;108.65;47.72;;;5.90;99.90;;;;;;5020228;28;20149;-39
2022/12/01 03:36:27;;;;;;;102.03;46.72;;;5.90;99.90;;;;;;5033234;28;20397;-40
2022/12/01 03:38:58;;;;;;;116.90;49.90;;;5.90;99.90;;;;;;5018859;28;20088;-39
2022/12/01 03:41:26;;;;;;;105.18;49.13;;;5.90;99.90;;;;;;5037863;28;20045;-39
2022/12/01 03:43:55;;;;;;;113.10;49.13;;;5.90;99.90;;;;;;5025204;28;20077;-39
2022/12/01 03:46:24;;;;;;;118.60;49.38;;;5.90;99.90;;;;;;5036358;28;20472;-39
2022/12/01 03:48:51;;;;;;;104.10;47.30;;;5.90;99.90;;;;;;5037275;28;20413;-39
2022/12/01 03:51:20;;;;;;;105.20;48.40;;;5.90;99.90;;;;;;5016876;28;20068;-40
2022/12/01 03:53:50;;;;;;;102.28;46.53;;;5.90;99.90;;;;;;5029305;28;20050;-39
2022/12/01 03:56:20;;;;;;;112.85;48.85;;;5.90;99.90;;;;;;5037405;28;20099;-40
2022/12/01 03:58:47;;;;;;;104.15;46.40;;;5.90;99.90;;;;;;5019434;28;20134;-40
2022/12/01 04:01:14;;;;;;;106.97;47.60;;;5.90;99.90;;;;;;5017450;28;20053;-40
2022/12/01 04:03:41;;;;;;;99.35;45.63;;;5.90;99.90;;;;;;5036295;28;20087;-40
2022/12/01 04:06:08;;;;;;;110.20;47.05;;;5.90;99.90;;;;;;5019989;28;20239;-40
2022/12/01 04:08:36;;;;;;;104.05;47.28;;;5.90;99.90;;;;;;5036924;28;20131;-40
2022/12/01 04:12:28;;;;;;;105.25;47.28;;;5.90;99.90;;;;;;5038482;28;20069;-40
2022/12/01 04:13:50;;;;;;;109.50;48.88;;;5.90;99.90;;;;;;5035627;28;20041;-39
2022/12/01 04:16:16;;;;;;;104.65;46.47;;;5.90;99.90;;;;;;5034442;28;20081;-40
2022/12/01 04:18:43;;;;;;;96.97;44.72;;;5.80;99.90;;;;;;5021168;28;20108;-40
2022/12/01 04:21:10;;;;;;;111.53;47.60;;;5.90;99.90;;;;;;5037069;28;20133;-40
2022/12/01 04:26:21;;;;;;;109.95;47.65;;;5.90;99.90;;;;;;5037496;28;20049;-40
2022/12/01 04:28:48;;;;;;;103.78;46.58;;;5.90;99.90;;;;;;5036432;28;20137;-40
2022/12/01 04:31:16;;;;;;;113.45;50.58;;;5.80;99.90;;;;;;5032697;28;20131;-38
2022/12/01 04:33:43;;;;;;;112.95;50.33;;;5.90;99.90;;;;;;5033777;28;20119;-40
2022/12/01 04:36:10;;;;;;;107.15;48.33;;;5.90;99.90;;;;;;5017093;28;20146;-40
2022/12/01 04:38:36;;;;;;;112.00;48.22;;;5.90;99.90;;;;;;5015130;28;20168;-40
2022/12/01 04:41:08;;;;;;;119.90;50.60;;;5.90;99.90;;;;;;5016464;28;20053;-39
2022/12/01 04:43:35;;;;;;;99.80;45.97;;;5.90;99.90;;;;;;5000541;28;20104;-40
2022/12/01 04:46:02;;;;;;;110.35;48.20;;;5.90;99.90;;;;;;5027142;28;20127;-39
2022/12/01 04:48:30;;;;;;;105.65;47.80;;;5.90;99.90;;;;;;5016349;28;20140;-39
2022/12/01 04:50:57;;;;;;;105.07;48.67;;;5.90;99.90;;;;;;5034433;28;20045;-40
2022/12/01 04:53:23;;;;;;;115.03;49.45;;;5.90;99.90;;;;;;5016712;28;20059;-40
2022/12/01 04:55:50;;;;;;;114.28;50.45;;;5.90;99.90;;;;;;5003599;28;20073;-40
2022/12/01 04:58:17;;;;;;;117.72;52.53;;;5.90;99.90;;;;;;5033205;28;20140;-40
2022/12/01 05:00:44;;;;;;;119.35;51.50;;;5.90;99.90;;;;;;5008600;28;20451;-39
2022/12/01 05:03:10;;;;;;;121.95;53.38;;;5.90;99.90;;;;;;5017666;28;20134;-40
2022/12/01 05:05:38;;;;;;;120.53;52.70;;;5.80;99.90;;;;;;5031362;28;20144;-39
2022/12/01 05:08:05;;;;;;;122.05;51.47;;;5.80;99.90;;;;;;5032553;28;20053;-40
2022/12/01 05:10:35;;;;;;;130.35;54.38;;;5.80;99.90;;;;;;5013427;28;20509;-40
2022/12/01 05:13:01;;;;;;;122.50;53.25;;;5.80;99.90;;;;;;5032406;28;20073;-40
2022/12/01 05:15:28;;;;;;;115.63;50.05;;;5.80;99.90;;;;;;5030199;28;20119;-39
2022/12/01 05:17:55;;;;;;;118.18;51.25;;;5.90;99.90;;;;;;5000252;28;20061;-38
2022/12/01 05:23:10;;;;;;;116.90;50.47;;;5.80;99.90;;;;;;5023475;28;20489;-39
2022/12/01 05:25:37;;;;;;;120.60;51.47;;;5.80;99.90;;;;;;5006618;28;20089;-38
2022/12/01 05:28:05;;;;;;;120.50;52.55;;;5.80;99.90;;;;;;5033014;28;20081;-38
2022/12/01 05:30:32;;;;;;;117.22;51.13;;;5.80;99.90;;;;;;5010329;28;20057;-40
2022/12/01 05:32:58;;;;;;;134.77;55.13;;;5.80;99.90;;;;;;5029972;28;20077;-38
2022/12/01 05:35:25;;;;;;;113.40;50.88;;;5.80;99.90;;;;;;5016031;28;20046;-39
2022/12/01 05:37:52;;;;;;;119.90;51.55;;;5.80;99.90;;;;;;4996902;28;20068;-39
2022/12/01 05:40:20;;;;;;;123.35;52.78;;;5.80;99.90;;;;;;5023043;28;20588;-39
2022/12/01 05:42:47;;;;;;;123.88;52.50;;;5.80;99.90;;;;;;5013468;28;20141;-39
2022/12/01 05:45:14;;;;;;;128.45;54.00;;;5.80;99.90;;;;;;5015719;28;20085;-39
2022/12/01 05:47:41;;;;;;;133.52;54.28;;;5.80;99.90;;;;;;5033398;28;20135;-40
2022/12/01 05:50:08;;;;;;;119.82;51.00;;;5.80;99.90;;;;;;5027538;28;20107;-39
2022/12/01 05:52:35;;;;;;;131.85;54.08;;;5.80;99.90;;;;;;5009323;28;20137;-39
2022/12/01 05:55:02;;;;;;;121.60;53.80;;;5.80;99.90;;;;;;5028310;28;20124;-38
2022/12/01 05:57:30;;;;;;;134.27;54.67;;;5.80;99.90;;;;;;5004880;28;20053;-38
2022/12/01 05:59:57;;;;;;;129.60;52.42;;;5.80;99.90;;;;;;5027379;28;20147;-39
2022/12/01 06:02:25;;;;;;;124.82;50.90;;;5.80;99.90;;;;;;4997637;28;20057;-39
2022/12/01 06:04:52;;;;;;;113.60;49.33;;;5.80;99.90;;;;;;5028779;28;20076;-39
2022/12/01 06:07:19;;;;;;;124.65;51.75;;;5.80;99.90;;;;;;5022119;28;20244;-39
2022/12/01 06:09:46;;;;;;;128.20;52.15;;;5.80;99.90;;;;;;5022963;28;20453;-39
2022/12/01 06:12:13;;;;;;;127.30;52.90;;;5.80;99.90;;;;;;5021819;28;20170;-40
2022/12/01 06:14:41;;;;;;;115.57;50.00;;;5.90;99.90;;;;;;5032281;28;20508;-38
2022/12/01 06:17:07;;;;;;;125.10;52.13;;;5.80;99.90;;;;;;5006763;28;20184;-39
2022/12/01 06:19:34;;;;;;;128.88;52.92;;;5.90;99.90;;;;;;5033490;28;20085;-40
2022/12/01 06:22:01;;;;;;;120.47;51.20;;;5.90;99.90;;;;;;5031841;28;20049;-40
2022/12/01 06:24:28;;;;;;;133.85;53.05;;;5.90;99.90;;;;;;5031464;28;20053;-39
2022/12/01 06:26:54;;;;;;;118.15;49.55;;;5.80;99.90;;;;;;5023420;28;20042;-38
2022/12/01 06:29:21;;;;;;;124.40;52.50;;;5.90;99.90;;;;;;5014546;28;20057;-39
2022/12/01 06:31:49;;;;;;;132.63;54.28;;;5.80;99.90;;;;;;5014589;28;20081;-39
2022/12/01 06:34:16;;;;;;;118.55;51.63;;;5.90;99.90;;;;;;5033055;28;20129;-39
2022/12/01 06:36:43;;;;;;;121.30;51.92;;;5.90;99.90;;;;;;5015476;28;20053;-39
2022/12/01 06:39:10;;;;;;;119.53;51.22;;;5.80;99.90;;;;;;5013320;28;20140;-39
2022/12/01 06:41:36;;;;;;;123.80;50.70;;;5.80;99.90;;;;;;5011941;28;20486;-39
2022/12/01 06:44:03;;;;;;;114.60;48.03;;;5.80;99.90;;;;;;5014449;28;20436;-39
2022/12/01 06:46:30;;;;;;;115.65;49.17;;;5.80;99.90;;;;;;5033055;28;20092;-40
2022/12/01 06:48:58;;;;;;;116.75;48.75;;;5.80;99.90;;;;;;5031130;28;20139;-39
2022/12/01 06:51:25;;;;;;;113.93;47.95;;;5.80;99.90;;;;;;5031424;28;20068;-40
2022/12/01 06:53:53;;;;;;;115.35;47.88;;;5.80;99.90;;;;;;5023027;28;20073;-39
2022/12/01 06:56:20;;;;;;;118.20;50.35;;;5.80;99.90;;;;;;5028094;28;20056;-39
2022/12/01 06:58:47;;;;;;;116.85;48.70;;;5.80;99.90;;;;;;5032756;28;20413;-39
2022/12/01 07:01:14;;;;;;;124.18;48.25;;;5.80;99.90;;;;;;5015462;28;20096;-39
2022/12/01 07:03:41;;;;;;;108.43;47.15;;;5.80;99.90;;;;;;5015029;28;20135;-39
2022/12/01 07:06:09;;;;;;;125.05;51.88;;;5.80;99.90;;;;;;5032784;28;20084;-40
2022/12/01 07:08:36;;;;;;;117.40;48.03;;;5.70;99.90;;;;;;5003622;28;20124;-39
2022/12/01 07:11:04;;;;;;;115.72;48.08;;;5.70;99.90;;;;;;4995118;28;20074;-39
2022/12/01 07:13:31;;;;;;;116.10;47.03;;;5.70;99.90;;;;;;5020995;28;20057;-39
2022/12/01 07:15:58;;;;;;;122.32;49.90;;;5.60;99.90;;;;;;5031915;28;20473;-39
2022/12/01 07:18:24;;;;;;;116.25;48.28;;;5.70;99.90;;;;;;4995494;28;20112;-40
2022/12/01 07:20:51;;;;;;;127.78;52.53;;;5.70;99.90;;;;;;5031368;28;20128;-39
2022/12/01 07:23:20;;;;;;;120.22;49.88;;;5.70;99.90;;;;;;5032476;28;20089;-40
2022/12/01 07:25:47;;;;;;;116.45;49.08;;;5.70;99.90;;;;;;5019593;28;20049;-40
2022/12/01 07:28:13;;;;;;;114.28;47.65;;;5.70;99.90;;;;;;5015107;28;20084;-40
2022/12/01 07:30:40;;;;;;;114.78;49.70;;;5.70;99.90;;;;;;5032185;28;20489;-39
2022/12/01 07:33:07;;;;;;;116.45;48.08;;;5.70;99.90;;;;;;5032400;28;20088;-40
2022/12/01 07:35:37;;;;;;;114.55;47.15;;;5.70;99.90;;;;;;5015042;28;20124;-40
2022/12/01 07:38:03;;;;;;;130.85;51.88;;;5.70;99.90;;;;;;5014873;28;20085;-40
2022/12/01 07:40:32;;;;;;;121.22;48.88;;;5.70;99.90;;;;;;5010044;28;20136;-40
2022/12/01 07:42:58;;;;;;;130.27;51.72;;;5.70;99.90;;;;;;5029585;28;20053;-40
2022/12/01 07:45:25;;;;;;;119.97;51.22;;;5.70;99.90;;;;;;5032371;28;20099;-40
2022/12/01 07:47:52;;;;;;;116.20;49.00;;;5.70;99.90;;;;;;5014549;28;20136;-39
2022/12/01 07:50:19;;;;;;;106.70;46.75;;;5.70;99.90;;;;;;5032289;28;20513;-40
2022/12/01 07:52:49;;;;;;;125.68;50.15;;;5.80;99.90;;;;;;5032082;28;20115;-40
2022/12/01 07:55:16;;;;;;;116.55;46.45;;;5.70;99.90;;;;;;5026952;28;20046;-39
2022/12/01 07:57:44;;;;;;;124.43;49.90;;;5.70;99.90;;;;;;5032284;28;20158;-40
2022/12/01 08:00:12;;;;;;;119.22;48.78;;;5.70;99.90;;;;;;5029235;28;20081;-39
2022/12/01 08:02:39;;;;;;;122.45;51.33;;;5.70;99.90;;;;;;5031927;28;20558;-40
2022/12/01 08:05:06;;;;;;;121.25;49.90;;;5.70;99.90;;;;;;5015898;28;20471;-40
2022/12/01 08:07:32;;;;;;;121.70;49.78;;;5.70;99.90;;;;;;5018257;28;20104;-38
2022/12/01 08:09:59;;;;;;;108.10;47.75;;;5.80;99.90;;;;;;5035783;28;20088;-40
2022/12/01 08:12:26;;;;;;;127.53;51.60;;;5.80;99.90;;;;;;5018153;28;20442;-40
2022/12/01 08:14:54;;;;;;;113.68;47.20;;;5.80;99.90;;;;;;5029264;28;20485;-40
2022/12/01 08:17:21;;;;;;;114.70;47.42;;;5.70;99.90;;;;;;5015953;28;20132;-40
2022/12/01 08:19:48;;;;;;;116.93;46.85;;;5.80;99.90;;;;;;5015889;28;20089;-39
2022/12/01 08:22:14;;;;;;;126.25;49.55;;;5.80;99.90;;;;;;4998534;28;20104;-39
2022/12/01 08:24:41;;;;;;;127.03;52.65;;;5.80;99.90;;;;;;5005450;28;20442;-38
2022/12/01 08:27:08;;;;;;;108.68;47.58;;;5.80;99.90;;;;;;5017967;28;20473;-39
2022/12/01 08:29:35;;;;;;;123.30;50.08;;;5.80;99.90;;;;;;5035610;28;20111;-39
2022/12/01 08:32:04;;;;;;;119.40;48.38;;;5.80;99.90;;;;;;5035400;28;20053;-39
2022/12/01 08:34:30;;;;;;;114.13;47.83;;;5.90;99.90;;;;;;5033418;28;20053;-39
2022/12/01 08:36:57;;;;;;;122.72;50.00;;;5.90;99.90;;;;;;5035270;28;20132;-38
2022/12/01 08:39:24;;;;;;;106.20;45.40;;;5.90;99.90;;;;;;5035163;28;20088;-39
2022/12/01 08:41:51;;;;;;;129.45;53.05;;;5.90;99.90;;;;;;5031970;28;20128;-39
2022/12/01 08:44:17;;;;;;;109.35;47.22;;;5.90;99.90;;;;;;5035174;28;20103;-39
2022/12/01 08:46:44;;;;;;;116.00;48.20;;;5.90;99.90;;;;;;5035123;28;20088;-39
2022/12/01 08:49:12;;;;;;;111.13;48.22;;;5.80;99.90;;;;;;5017666;28;20092;-39
2022/12/01 08:51:39;;;;;;;130.45;50.85;;;5.80;99.90;;;;;;5034931;28;20089;-40
2022/12/01 08:54:06;;;;;;;111.68;46.65;;;5.80;99.90;;;;;;5030055;28;20053;-39
2022/12/01 08:56:34;;;;;;;107.80;47.95;;;5.70;99.90;;;;;;5033320;28;20393;-39
2022/12/01 08:59:01;;;;;;;118.28;48.28;;;5.70;99.90;;;;;;5034947;28;20045;-38
2022/12/01 09:01:28;;;;;;;109.80;45.70;;;5.60;99.90;;;;;;5034930;28;20487;-39
2022/12/01 09:04:04;;;;;;;112.95;46.72;;;5.60;99.90;;;;;;5034764;28;20085;-39
2022/12/01 09:06:33;;;;;;;115.85;46.15;;;5.60;99.90;;;;;;5034768;28;20056;-39
2022/12/01 09:09:00;;;;;;;103.30;45.75;;;5.50;99.90;;;;;;5034849;28;20139;-39
2022/12/01 09:11:27;;;;;;;111.00;46.53;;;5.50;99.90;;;;;;5032876;28;20461;-39
2022/12/01 09:13:53;;;;;;;115.90;47.72;;;5.50;99.90;;;;;;5017269;28;20468;-39
2022/12/01 09:16:20;;;;;;;128.52;51.88;;;5.50;99.90;;;;;;5033961;28;20136;-39
2022/12/01 09:18:47;;;;;;;130.30;51.88;;;5.50;99.90;;;;;;5034425;28;20111;-39
2022/12/01 09:21:15;;;;;;;108.80;45.50;;;5.40;99.90;;;;;;5034412;28;20089;-39
2022/12/01 09:23:43;;;;;;;123.35;49.92;;;5.40;99.90;;;;;;5016667;28;20197;-39
2022/12/01 09:26:10;;;;;;;130.00;52.40;;;5.40;99.90;;;;;;5024161;28;20131;-39
2022/12/01 09:28:37;;;;;;;112.18;46.33;;;5.30;99.90;;;;;;5034338;28;20521;-39
2022/12/01 09:31:04;;;;;;;116.07;47.25;;;5.30;99.90;;;;;;5034403;28;20092;-39
2022/12/01 09:33:31;;;;;;;111.97;48.70;;;5.30;99.90;;;;;;5016758;28;20468;-39
2022/12/01 09:35:58;;;;;;;99.22;44.70;;;5.40;99.90;;;;;;5034089;28;20444;-38
2022/12/01 09:38:25;;;;;;;115.15;48.13;;;5.40;99.90;;;;;;5034348;28;20398;-39
2022/12/01 09:40:53;;;;;;;115.57;48.40;;;5.40;99.90;;;;;;5016783;28;20141;-39
2022/12/01 09:43:20;;;;;;;102.32;43.47;;;5.40;99.90;;;;;;5000435;28;20050;-39
2022/12/01 09:45:50;;;;;;;108.75;45.40;;;5.40;99.90;;;;;;5034063;28;20404;-39
2022/12/01 09:48:24;;;;;;;110.00;45.85;;;5.40;99.90;;;;;;5016435;28;20136;-40
2022/12/01 09:50:50;;;;;;;105.55;46.53;;;5.40;99.90;;;;;;5016385;28;20144;-38
2022/12/01 09:53:19;;;;;;;105.55;45.97;;;5.40;99.90;;;;;;5015841;28;20088;-39
2022/12/01 09:55:46;;;;;;;110.05;47.38;;;5.40;99.90;;;;;;5014232;28;20085;-40
2022/12/01 09:58:16;;;;;;;100.28;43.75;;;5.40;99.90;;;;;;5018038;28;20073;-40
2022/12/01 10:00:43;;;;;;;117.57;50.28;;;5.50;99.90;;;;;;5033853;28;20103;-40
2022/12/01 10:03:17;;;;;;;101.82;45.00;;;5.40;99.90;;;;;;5033499;28;20061;-39
2022/12/01 10:05:45;;;;;;;108.47;46.35;;;5.40;99.90;;;;;;5033777;28;20549;-39
2022/12/01 10:08:12;;;;;;;103.38;43.72;;;5.30;99.90;;;;;;5033590;28;20107;-39
2022/12/01 10:10:40;;;;;;;115.32;47.50;;;5.30;99.90;;;;;;5016006;28;20053;-38
2022/12/01 10:13:11;;;;;;;107.50;43.90;;;5.30;99.90;;;;;;5015666;28;20054;-39
2022/12/01 10:15:41;;;;;;;122.95;50.20;;;5.30;99.90;;;;;;5032162;28;20053;-39
2022/12/01 10:18:25;;;;;;;107.88;45.65;;;5.30;99.90;;;;;;5033340;28;20042;-39
2022/12/01 10:20:55;;;;;;;117.80;47.00;;;5.40;99.90;;;;;;5033552;28;20080;-38
2022/12/01 10:23:30;;;;;;;135.48;51.20;;;5.40;99.90;;;;;;5028149;28;20081;-39
2022/12/01 10:25:58;;;;;;;115.25;50.22;;;5.50;99.90;;;;;;5013468;28;20139;-39
2022/12/01 10:28:44;;;;;;;114.68;46.88;;;5.60;99.90;;;;;;5012495;28;20054;-39
2022/12/01 10:31:16;;;;;;;119.07;50.42;;;5.70;99.90;;;;;;5013578;28;20567;-39
2022/12/01 10:33:48;;;;;;;114.85;47.55;;;5.80;99.90;;;;;;5013664;28;20092;-39
2022/12/01 10:36:15;;;;;;;115.93;48.15;;;5.90;99.90;;;;;;5013366;28;20054;-39
2022/12/01 10:38:42;;;;;;;118.43;50.85;;;6.00;99.90;;;;;;4997503;28;20074;-39
2022/12/01 10:41:11;;;;;;;118.10;48.53;;;6.10;99.90;;;;;;5015281;28;20087;-39
2022/12/01 10:43:39;;;;;;;112.25;47.58;;;6.20;99.90;;;;;;5033148;28;20454;-39
2022/12/01 10:46:13;;;;;;;110.95;48.83;;;6.30;99.90;;;;;;5032925;28;20077;-38
2022/12/01 10:48:52;;;;;;;107.65;47.45;;;6.30;99.90;;;;;;5033127;28;20143;-39
2022/12/01 10:51:21;;;;;;;103.47;46.47;;;6.30;99.90;;;;;;5011860;28;20057;-38
2022/12/01 10:53:48;;;;;;;108.07;46.85;;;6.40;99.90;;;;;;5012974;28;20472;-39
2022/12/01 10:56:17;;;;;;;116.15;49.83;;;6.40;99.90;;;;;;4995884;28;20513;-39
2022/12/01 10:58:46;;;;;;;106.68;46.45;;;6.40;99.90;;;;;;5013113;28;20249;-39
2022/12/01 11:01:17;;;;;;;103.72;45.50;;;6.40;99.90;;;;;;5024571;28;20050;-39
2022/12/01 11:03:49;;;;;;;110.35;46.28;;;6.40;99.90;;;;;;5014637;28;20085;-39
2022/12/01 11:06:16;;;;;;;105.15;46.28;;;6.40;99.90;;;;;;5032621;28;20132;-40
2022/12/01 11:08:44;;;;;;;100.75;45.50;;;6.40;99.90;;;;;;5014610;28;20124;-39
2022/12/01 11:11:31;;;;;;;107.15;46.05;;;6.40;99.90;;;;;;4999510;28;20081;-39
2022/12/01 11:13:59;;;;;;;105.85;47.40;;;6.40;99.90;;;;;;4995611;28;20054;-39
2022/12/01 11:16:43;;;;;;;101.05;44.45;;;6.50;99.90;;;;;;5012828;28;20474;-39
2022/12/01 11:19:27;;;;;;;104.03;44.67;;;6.50;99.90;;;;;;4995540;28;20057;-39
2022/12/01 11:21:54;;;;;;;90.75;40.88;;;6.50;99.90;;;;;;4995782;28;20045;-39
2022/12/01 11:24:29;;;;;;;94.93;43.67;;;6.40;99.90;;;;;;5012897;28;20133;-39
2022/12/01 11:26:57;;;;;;;93.90;43.53;;;6.50;99.90;;;;;;4996032;28;20081;-38
2022/12/01 11:29:30;;;;;;;89.38;41.28;;;6.60;99.90;;;;;;4995166;28;20151;-38
2022/12/01 11:31:57;;;;;;;100.53;43.65;;;6.60;99.90;;;;;;5012872;28;20053;-38
2022/12/01 11:34:26;;;;;;;93.25;42.75;;;6.70;99.90;;;;;;5012752;28;20137;-39
2022/12/01 11:36:54;;;;;;;92.07;42.05;;;6.70;99.90;;;;;;5012756;28;20165;-39
2022/12/01 11:39:22;;;;;;;99.57;43.00;;;6.70;99.90;;;;;;5013007;28;20054;-39
2022/12/01 11:41:49;;;;;;;88.55;40.63;;;6.70;99.90;;;;;;5030371;28;20057;-38
2022/12/01 11:44:18;;;;;;;92.20;40.80;;;6.80;99.90;;;;;;5018154;28;20087;-38
2022/12/01 11:46:44;;;;;;;94.93;41.03;;;6.80;99.90;;;;;;5036323;28;20293;-39
2022/12/01 11:49:16;;;;;;;87.97;41.10;;;6.80;99.90;;;;;;5018846;28;20053;-39
2022/12/01 11:51:44;;;;;;;95.10;43.08;;;6.80;99.90;;;;;;5036106;28;20049;-39
2022/12/01 11:54:15;;;;;;;87.18;41.90;;;6.80;99.90;;;;;;5016393;28;20209;-39
2022/12/01 11:56:42;;;;;;;85.65;40.25;;;6.80;99.90;;;;;;5018318;28;20104;-39
2022/12/01 11:59:12;;;;;;;88.80;42.22;;;6.80;99.90;;;;;;5018614;28;20054;-39
2022/12/01 12:01:45;;;;;;;90.63;41.17;;;6.90;99.90;;;;;;5034882;28;20513;-39
2022/12/01 12:04:21;;;;;;;90.63;41.15;;;6.90;99.90;;;;;;5032255;28;20069;-39
2022/12/01 12:06:53;;;;;;;84.53;39.72;;;6.90;99.90;;;;;;5029472;28;20084;-39
2022/12/01 12:09:28;;;;;;;87.13;39.65;;;6.90;99.90;;;;;;5016052;28;20141;-40
2022/12/01 12:12:00;;;;;;;85.03;41.33;;;7.00;99.90;;;;;;5015947;28;20410;-40
2022/12/01 12:14:37;;;;;;;81.43;40.00;;;7.00;99.90;;;;;;5007214;28;20141;-39
2022/12/01 12:17:22;;;;;;;82.95;39.63;;;7.00;99.90;;;;;;5035679;28;20585;-40
2022/12/01 12:20:01;;;;;;;84.32;41.72;;;7.10;99.90;;;;;;5033579;28;20081;-40
2022/12/01 12:22:34;;;;;;;85.68;41.38;;;7.10;99.90;;;;;;5015057;28;20049;-40
2022/12/01 12:25:07;;;;;;;85.35;39.58;;;7.10;99.90;;;;;;5016164;28;20093;-40
2022/12/01 12:27:40;;;;;;;89.40;41.38;;;7.10;99.90;;;;;;4998344;28;20085;-40
2022/12/01 12:30:16;;;;;;;85.88;40.70;;;7.00;99.90;;;;;;5015690;28;20137;-39
2022/12/01 12:33:15;;;;;;;83.97;40.22;;;7.00;99.90;;;;;;5015969;28;20572;-40
2022/12/01 12:35:44;;;;;;;80.57;39.40;;;7.00;99.90;;;;;;5010209;28;20053;-39
2022/12/01 12:38:23;;;;;;;84.28;40.33;;;7.10;99.90;;;;;;5034146;28;20071;-40
2022/12/01 12:40:52;;;;;;;84.47;40.35;;;7.00;99.90;;;;;;5035379;28;20140;-39
2022/12/01 12:43:25;;;;;;;79.43;39.47;;;7.00;99.90;;;;;;5035507;28;20080;-38
2022/12/01 12:46:01;;;;;;;74.50;38.83;;;7.00;99.90;;;;;;5017689;28;20133;-39